< < Back
Terminal Aerodrome Forecast


Current Version              Previous Versions:   1  2  3  4  5  6  7  8  9  

Terminal Aerodrome Forecast

956
FTUS44 KMOB 231700
TAFPNS
TAF
KPNS 231720Z 2318/2418 08006KT P6SM SKC
     FM240300 02003KT P6SM SCT250
     FM241500 02006KT P6SM SKC=

Latest METAR

891
SAUS70 KWBC 231900
MTRPNS
METAR KPNS 231853Z 00000KT 10SM CLR 22/05 A3004 RMK AO2 SLP174
T02220050


USA.gov is the U.S. government's official web portal to all federal, state and local government web resources and services.